createdAt,value
2023-02-22T00:05:53.531Z,99.31
2023-02-22T00:11:55.409Z,99.46
2023-02-22T00:17:57.591Z,99.37
2023-02-22T00:23:59.460Z,99.45
2023-02-22T00:30:01.362Z,99.69
2023-02-22T00:36:04.010Z,99.01
2023-02-22T00:42:06.622Z,98.24
2023-02-22T00:48:09.973Z,98.53
2023-02-22T00:54:11.959Z,98.78
2023-02-22T01:00:27.642Z,98.10
2023-02-22T01:06:29.579Z,98.01
2023-02-22T01:12:31.758Z,99.20
2023-02-22T01:18:37.329Z,99.87
2023-02-22T01:24:39.232Z,100.00
2023-02-22T01:30:41.362Z,99.78
2023-02-22T01:36:43.448Z,99.89
2023-02-22T01:42:47.021Z,99.81
2023-02-22T01:48:58.497Z,100.00
2023-02-22T01:55:00.914Z,100.00
2023-02-22T02:01:02.942Z,100.00
2023-02-22T02:07:08.596Z,100.00
2023-02-22T02:13:10.931Z,100.00
2023-02-22T02:19:49.815Z,99.91
2023-02-22T02:26:03.958Z,100.00
2023-02-22T02:32:39.254Z,100.00
2023-02-22T02:39:15.702Z,100.00
2023-02-22T02:45:36.304Z,100.00
2023-02-22T02:51:46.165Z,100.00
2023-02-22T02:57:48.034Z,100.00
2023-02-22T03:04:23.151Z,100.00
2023-02-22T03:11:04.132Z,100.00
2023-02-22T03:17:36.753Z,100.00
2023-02-22T03:23:49.931Z,100.00
2023-02-22T03:30:00.358Z,100.00
2023-02-22T03:36:28.971Z,100.00
2023-02-22T03:42:35.769Z,100.00
2023-02-22T03:48:48.975Z,100.00
2023-02-22T03:54:55.397Z,100.00
2023-02-22T04:00:57.492Z,100.00
2023-02-22T04:06:59.710Z,100.00
2023-02-22T04:13:01.637Z,100.00
2023-02-22T04:19:03.539Z,100.00
2023-02-22T04:25:06.168Z,100.00
2023-02-22T04:31:08.098Z,100.00
2023-02-22T04:37:10.458Z,100.00
2023-02-22T04:43:12.347Z,100.00
2023-02-22T04:49:14.306Z,100.00
2023-02-22T04:55:16.657Z,100.00
2023-02-22T05:01:19.313Z,100.00
2023-02-22T05:07:21.364Z,100.00
2023-02-22T05:13:23.251Z,100.00
2023-02-22T05:19:25.602Z,99.92
2023-02-22T05:25:28.509Z,100.00
2023-02-22T05:31:30.508Z,100.00
2023-02-22T05:37:32.481Z,100.00
2023-02-22T05:43:34.416Z,100.00
2023-02-22T05:49:36.351Z,100.00
2023-02-22T05:55:38.258Z,100.00
2023-02-22T06:01:40.156Z,100.00
2023-02-22T06:07:42.112Z,100.00
2023-02-22T06:13:51.136Z,100.00
2023-02-22T06:19:53.041Z,100.00
2023-02-22T06:25:55.000Z,100.00
2023-02-22T06:31:56.979Z,100.00
2023-02-22T06:37:58.903Z,99.14
2023-02-22T06:44:00.775Z,99.75
2023-02-22T06:50:02.751Z,99.36
2023-02-22T06:56:05.210Z,98.65
2023-02-22T07:02:07.109Z,98.97
2023-02-22T07:08:09.174Z,99.73
2023-02-22T07:14:11.094Z,99.32
2023-02-22T07:20:13.157Z,99.25
2023-02-22T07:26:15.366Z,99.03
2023-02-22T07:32:17.555Z,98.55
2023-02-22T07:38:21.025Z,97.77
2023-02-22T07:44:22.961Z,97.33
2023-02-22T07:50:27.793Z,96.26
2023-02-22T07:56:29.702Z,95.25
2023-02-22T08:02:31.672Z,93.01
2023-02-22T08:08:34.517Z,90.41
2023-02-22T08:14:36.434Z,89.43
2023-02-22T08:20:40.520Z,86.71
2023-02-22T08:26:47.243Z,85.90
2023-02-22T08:32:50.724Z,84.01
2023-02-22T08:38:52.675Z,82.70
2023-02-22T08:44:54.578Z,82.95
2023-02-22T08:50:56.665Z,84.08
2023-02-22T08:56:58.556Z,83.97
2023-02-22T09:03:02.323Z,84.05
2023-02-22T09:09:04.259Z,84.81
2023-02-22T09:15:06.389Z,84.58
2023-02-22T09:21:08.315Z,82.76
2023-02-22T09:27:12.154Z,81.69
2023-02-22T09:33:18.497Z,82.06
2023-02-22T09:39:21.697Z,82.20
2023-02-22T09:46:06.318Z,80.63
2023-02-22T09:52:27.144Z,82.10
2023-02-22T09:58:40.214Z,80.94
2023-02-22T10:04:53.090Z,78.94
2023-02-22T10:11:02.970Z,77.00
2023-02-22T10:17:13.044Z,77.95
2023-02-22T10:23:46.345Z,77.10
2023-02-22T10:30:42.772Z,75.21
2023-02-22T10:36:49.604Z,75.71
2023-02-22T10:42:51.569Z,73.43
2023-02-22T10:49:02.657Z,72.21
2023-02-22T10:55:15.731Z,72.05
2023-02-22T11:01:24.149Z,72.25
2023-02-22T11:07:36.126Z,71.04
2023-02-22T11:13:39.816Z,68.12
2023-02-22T11:19:49.093Z,68.11
2023-02-22T11:26:01.673Z,67.11
2023-02-22T11:32:22.345Z,65.70
2023-02-22T11:38:25.281Z,64.14
2023-02-22T11:44:29.824Z,63.60
2023-02-22T11:50:37.743Z,61.71
2023-02-22T11:56:50.440Z,62.19
2023-02-22T12:03:17.514Z,61.09
2023-02-22T12:09:48.222Z,61.70
2023-02-22T12:16:05.904Z,61.80
2023-02-22T12:22:24.200Z,61.53
2023-02-22T12:28:59.445Z,60.25
2023-02-22T12:35:34.884Z,59.03
2023-02-22T12:41:48.484Z,58.82
2023-02-22T12:48:21.688Z,55.96
2023-02-22T12:54:56.229Z,55.33
2023-02-22T13:01:12.113Z,53.50
2023-02-22T13:07:44.341Z,53.26
2023-02-22T13:14:39.585Z,54.16
2023-02-22T13:21:25.181Z,54.08
2023-02-22T13:27:42.776Z,54.56
2023-02-22T13:34:06.387Z,53.80
2023-02-22T13:40:29.050Z,53.41
2023-02-22T13:46:58.370Z,51.79
2023-02-22T13:53:04.922Z,52.03
2023-02-22T13:59:07.383Z,49.44
2023-02-22T14:05:35.640Z,48.85
2023-02-22T14:11:42.993Z,50.24
2023-02-22T14:17:48.517Z,48.49
2023-02-22T14:23:55.895Z,49.50
2023-02-22T14:30:00.560Z,50.30
2023-02-22T14:36:03.510Z,52.05
2023-02-22T14:42:21.263Z,54.60
2023-02-22T14:48:51.779Z,57.59
2023-02-22T14:55:15.689Z,57.94
2023-02-22T15:01:49.160Z,59.27
2023-02-22T15:08:02.498Z,59.26
2023-02-22T15:14:25.868Z,61.74
2023-02-22T15:20:29.465Z,62.97
2023-02-22T15:27:00.127Z,64.62
2023-02-22T15:33:24.729Z,65.68
2023-02-22T15:39:33.249Z,67.98
2023-02-22T15:45:38.276Z,68.92
2023-02-22T15:51:46.440Z,70.36
2023-02-22T15:57:48.927Z,72.24
2023-02-22T16:03:59.123Z,74.02
2023-02-22T16:10:08.084Z,76.27
2023-02-22T16:16:24.874Z,78.29
2023-02-22T16:22:35.262Z,80.63
2023-02-22T16:28:46.726Z,82.63
2023-02-22T16:34:50.341Z,84.01
2023-02-22T16:40:55.593Z,85.60
2023-02-22T16:47:00.951Z,86.68
2023-02-22T16:53:02.906Z,87.60
2023-02-22T16:59:13.936Z,88.29
2023-02-22T17:05:16.955Z,88.93
2023-02-22T17:11:19.436Z,89.68
2023-02-22T17:17:21.319Z,90.65
2023-02-22T17:23:24.709Z,91.48
2023-02-22T17:29:27.970Z,91.86
2023-02-22T17:35:37.167Z,92.22
2023-02-22T17:41:40.695Z,93.82
2023-02-22T17:47:44.032Z,93.92
2023-02-22T17:53:46.472Z,94.83
2023-02-22T17:59:48.424Z,95.70
2023-02-22T18:05:55.939Z,96.55
2023-02-22T18:11:58.094Z,97.25
2023-02-22T18:17:59.968Z,97.99
2023-02-22T18:24:02.005Z,97.80
2023-02-22T18:30:06.431Z,97.54
2023-02-22T18:36:11.371Z,97.57
2023-02-22T18:42:15.076Z,97.95
2023-02-22T18:48:16.995Z,97.53
2023-02-22T18:54:19.694Z,97.48
2023-02-22T19:00:24.973Z,98.31
2023-02-22T19:06:26.968Z,98.77
2023-02-22T19:12:31.399Z,98.62
2023-02-22T19:18:33.584Z,99.17
2023-02-22T19:24:36.377Z,99.33
2023-02-22T19:30:38.345Z,99.34
2023-02-22T19:36:46.032Z,99.31
2023-02-22T19:42:49.374Z,99.42
2023-02-22T19:48:53.254Z,99.17
2023-02-22T19:54:55.149Z,98.82
2023-02-22T20:00:57.042Z,99.23
2023-02-22T20:06:58.925Z,99.77
2023-02-22T20:13:01.720Z,99.54
2023-02-22T20:19:03.988Z,100.00
2023-02-22T20:25:06.436Z,100.00
2023-02-22T20:31:13.799Z,100.00
2023-02-22T20:37:15.944Z,100.00
2023-02-22T20:43:17.841Z,100.00
2023-02-22T20:49:21.311Z,100.00
2023-02-22T20:55:23.206Z,100.00
2023-02-22T21:01:25.912Z,100.00
2023-02-22T21:07:27.894Z,100.00
2023-02-22T21:13:29.810Z,100.00
2023-02-22T21:19:33.275Z,100.00
2023-02-22T21:25:35.369Z,100.00
2023-02-22T21:31:37.904Z,100.00
2023-02-22T21:37:39.894Z,100.00
2023-02-22T21:43:43.457Z,100.00
2023-02-22T21:49:45.514Z,100.00
2023-02-22T21:55:47.459Z,100.00
2023-02-22T22:01:57.907Z,100.00
2023-02-22T22:08:07.451Z,100.00
2023-02-22T22:14:10.636Z,100.00
2023-02-22T22:20:15.614Z,100.00
2023-02-22T22:26:24.426Z,100.00
2023-02-22T22:32:26.546Z,100.00
2023-02-22T22:38:29.709Z,100.00
2023-02-22T22:44:34.487Z,100.00
2023-02-22T22:50:37.650Z,100.00
2023-02-22T22:56:39.609Z,100.00
2023-02-22T23:02:41.498Z,100.00
2023-02-22T23:08:43.396Z,100.00
2023-02-22T23:14:46.010Z,100.00
2023-02-22T23:20:55.015Z,100.00
2023-02-22T23:27:00.101Z,100.00
2023-02-22T23:33:02.348Z,100.00
2023-02-22T23:39:06.633Z,100.00
2023-02-22T23:45:14.244Z,100.00
2023-02-22T23:51:20.334Z,100.00
2023-02-22T23:57:24.348Z,100.00
